createdAt,value
2022-10-17T00:00:29.709Z,101441.56
2022-10-17T00:02:56.161Z,101440.72
2022-10-17T00:05:23.542Z,101437.59
2022-10-17T00:07:49.997Z,101443.88
2022-10-17T00:10:17.364Z,101439.91
2022-10-17T00:12:43.818Z,101444.31
2022-10-17T00:15:11.202Z,101449.84
2022-10-17T00:17:38.553Z,101439.56
2022-10-17T00:20:05.057Z,101452.22
2022-10-17T00:22:32.467Z,101443.50
2022-10-17T00:24:58.935Z,101441.88
2022-10-17T00:27:25.716Z,101436.34
2022-10-17T00:29:52.483Z,101433.13
2022-10-17T00:32:18.955Z,101435.91
2022-10-17T00:34:45.407Z,101437.09
2022-10-17T00:37:12.848Z,101445.44
2022-10-17T00:39:40.227Z,101444.66
2022-10-17T00:42:07.611Z,101455.44
2022-10-17T00:44:34.066Z,101463.00
2022-10-17T00:47:00.538Z,101461.34
2022-10-17T00:49:26.993Z,101467.34
2022-10-17T00:51:53.431Z,101462.97
2022-10-17T00:54:19.872Z,101456.56
2022-10-17T00:56:46.322Z,101455.38
2022-10-17T00:59:12.776Z,101453.38
2022-10-17T01:01:39.293Z,101455.78
2022-10-17T01:04:05.777Z,101459.31
2022-10-17T01:06:32.238Z,101460.56
2022-10-17T01:08:58.702Z,101446.59
2022-10-17T01:11:25.162Z,101453.41
2022-10-17T01:13:51.613Z,101458.09
2022-10-17T01:16:19.011Z,101454.13
2022-10-17T01:18:46.364Z,101465.25
2022-10-17T01:21:12.854Z,101466.13
2022-10-17T01:23:39.314Z,101458.88
2022-10-17T01:26:05.755Z,101454.91
2022-10-17T01:28:33.233Z,101448.50
2022-10-17T01:30:59.758Z,101441.00
2022-10-17T01:33:26.224Z,101441.81
2022-10-17T01:35:53.600Z,101450.53
2022-10-17T01:38:21.042Z,101448.16
2022-10-17T01:40:47.511Z,101452.91
2022-10-17T01:43:13.989Z,101447.75
2022-10-17T01:45:40.486Z,101452.91
2022-10-17T01:48:07.854Z,101451.31
2022-10-17T01:50:35.224Z,101450.88
2022-10-17T01:53:01.670Z,101449.69
2022-10-17T01:55:28.129Z,101454.81
2022-10-17T01:57:54.583Z,101463.56
2022-10-17T02:00:21.040Z,101458.06
2022-10-17T02:02:47.494Z,101461.56
2022-10-17T02:05:14.906Z,101465.19
2022-10-17T02:07:41.356Z,101464.38
2022-10-17T02:10:08.763Z,101461.56
2022-10-17T02:12:35.226Z,101466.00
2022-10-17T02:15:01.736Z,101461.22
2022-10-17T02:17:28.453Z,101458.84
2022-10-17T02:19:55.092Z,101463.56
2022-10-17T02:22:22.476Z,101466.75
2022-10-17T02:24:48.914Z,101463.56
2022-10-17T02:27:15.394Z,101469.94
2022-10-17T02:29:41.848Z,101468.28
2022-10-17T02:32:09.309Z,101470.66
2022-10-17T02:34:35.790Z,101478.22
2022-10-17T02:37:02.248Z,101483.75
2022-10-17T02:39:29.642Z,101484.91
2022-10-17T02:41:57.072Z,101492.09
2022-10-17T02:44:23.576Z,101500.09
2022-10-17T02:46:50.041Z,101497.34
2022-10-17T02:49:16.519Z,101488.53
2022-10-17T02:51:42.980Z,101496.44
2022-10-17T02:54:09.447Z,101490.06
2022-10-17T02:56:35.899Z,101505.19
2022-10-17T02:59:02.367Z,101519.50
2022-10-17T03:01:28.838Z,101527.06
2022-10-17T03:03:56.271Z,101527.50
2022-10-17T03:06:22.730Z,101526.25
2022-10-17T03:08:50.106Z,101527.41
2022-10-17T03:11:17.485Z,101536.19
2022-10-17T03:13:43.942Z,101534.22
2022-10-17T03:16:11.293Z,101533.34
2022-10-17T03:18:37.798Z,101534.63
2022-10-17T03:21:05.200Z,101539.44
2022-10-17T03:23:31.646Z,101535.72
2022-10-17T03:25:58.139Z,101542.09
2022-10-17T03:28:24.631Z,101540.91
2022-10-17T03:30:52.043Z,101537.81
2022-10-17T03:33:19.409Z,101538.03
2022-10-17T03:35:46.017Z,101537.81
2022-10-17T03:38:12.505Z,101536.19
2022-10-17T03:40:39.096Z,101530.81
2022-10-17T03:43:05.547Z,101535.13
2022-10-17T03:45:32.927Z,101523.25
2022-10-17T03:47:59.382Z,101515.66
2022-10-17T03:50:26.751Z,101522.41
2022-10-17T03:52:53.202Z,101529.75
2022-10-17T03:55:20.577Z,101526.13
2022-10-17T03:57:47.054Z,101525.78
2022-10-17T04:00:14.438Z,101537.72
2022-10-17T04:02:41.853Z,101543.72
2022-10-17T04:05:08.334Z,101544.09
2022-10-17T04:07:35.725Z,101544.06
2022-10-17T04:10:02.157Z,101546.03
2022-10-17T04:12:28.879Z,101544.44
2022-10-17T04:14:56.359Z,101556.41
2022-10-17T04:17:22.856Z,101555.59
2022-10-17T04:19:49.330Z,101562.38
2022-10-17T04:22:16.711Z,101560.41
2022-10-17T04:24:43.207Z,101557.69
2022-10-17T04:27:09.654Z,101554.53
2022-10-17T04:29:36.122Z,101549.81
2022-10-17T04:32:02.574Z,101553.91
2022-10-17T04:34:29.942Z,101552.72
2022-10-17T04:36:56.407Z,101553.13
2022-10-17T04:39:22.868Z,101557.16
2022-10-17T04:41:50.246Z,101554.34
2022-10-17T04:44:17.621Z,101557.53
2022-10-17T04:46:44.064Z,101563.53
2022-10-17T04:49:11.471Z,101575.53
2022-10-17T04:51:37.910Z,101574.34
2022-10-17T04:54:05.274Z,101585.13
2022-10-17T04:56:32.644Z,101579.16
2022-10-17T04:58:59.111Z,101578.78
2022-10-17T05:01:26.614Z,101593.50
2022-10-17T05:03:53.229Z,101594.63
2022-10-17T05:06:20.598Z,101601.28
2022-10-17T05:08:47.062Z,101610.00
2022-10-17T05:11:14.478Z,101606.34
2022-10-17T05:13:40.926Z,101616.72
2022-10-17T05:16:07.431Z,101616.28
2022-10-17T05:18:33.906Z,101620.63
2022-10-17T05:21:01.339Z,101616.25
2022-10-17T05:23:27.826Z,101596.72
2022-10-17T05:25:54.280Z,101595.09
2022-10-17T05:28:21.097Z,101600.25
2022-10-17T05:30:48.528Z,101620.63
2022-10-17T05:33:15.926Z,101626.19
2022-10-17T05:35:42.381Z,101634.91
2022-10-17T05:38:09.864Z,101637.34
2022-10-17T05:40:36.313Z,101645.69
2022-10-17T05:43:03.995Z,101653.72
2022-10-17T05:45:30.647Z,101654.16
2022-10-17T05:47:58.336Z,101664.53
2022-10-17T05:50:25.998Z,101658.94
2022-10-17T05:52:53.454Z,101655.34
2022-10-17T05:55:20.846Z,101654.09
2022-10-17T05:57:47.304Z,101659.38
2022-10-17T06:00:15.001Z,101659.97
2022-10-17T06:02:42.394Z,101655.81
2022-10-17T06:05:08.874Z,101657.75
2022-10-17T06:07:35.399Z,101653.31
2022-10-17T06:10:02.849Z,101659.38
2022-10-17T06:12:30.665Z,101660.13
2022-10-17T06:14:58.353Z,101671.72
2022-10-17T06:17:25.753Z,101675.22
2022-10-17T06:19:53.248Z,101667.81
2022-10-17T06:22:20.709Z,101671.94
2022-10-17T06:24:50.053Z,101666.25
2022-10-17T06:27:17.457Z,101666.53
2022-10-17T06:29:43.951Z,101673.28
2022-10-17T06:32:12.771Z,101679.22
2022-10-17T06:34:42.430Z,101684.13
2022-10-17T06:37:09.828Z,101680.97
2022-10-17T06:39:36.285Z,101692.00
2022-10-17T06:42:03.707Z,101683.66
2022-10-17T06:44:31.093Z,101679.97
2022-10-17T06:46:58.475Z,101683.19
2022-10-17T06:49:25.905Z,101689.88
2022-10-17T06:51:53.261Z,101692.31
2022-10-17T06:54:20.659Z,101699.94
2022-10-17T06:56:48.051Z,101699.25
2022-10-17T06:59:15.412Z,101700.44
2022-10-17T07:01:44.572Z,101698.94
2022-10-17T07:04:14.468Z,101702.25
2022-10-17T07:06:41.856Z,101703.41
2022-10-17T07:09:08.310Z,101707.16
2022-10-17T07:11:35.734Z,101705.56
2022-10-17T07:14:02.205Z,101700.50
2022-10-17T07:16:29.617Z,101710.81
2022-10-17T07:18:56.984Z,101711.59
2022-10-17T07:21:23.465Z,101707.56
2022-10-17T07:23:50.881Z,101707.81
2022-10-17T07:26:17.369Z,101708.88
2022-10-17T07:28:43.835Z,101708.34
2022-10-17T07:31:10.326Z,101717.50
2022-10-17T07:33:37.758Z,101710.19
2022-10-17T07:36:06.010Z,101717.72
2022-10-17T07:38:33.417Z,101708.06
2022-10-17T07:40:59.863Z,101720.47
2022-10-17T07:43:27.285Z,101725.25
2022-10-17T07:45:53.733Z,101730.34
2022-10-17T07:48:21.113Z,101726.81
2022-10-17T07:50:48.513Z,101727.59
2022-10-17T07:53:14.983Z,101732.41
2022-10-17T07:55:42.377Z,101731.69
2022-10-17T07:58:08.930Z,101739.34
2022-10-17T08:00:35.460Z,101753.00
2022-10-17T08:03:02.902Z,101744.72
2022-10-17T08:05:30.318Z,101743.56
2022-10-17T08:07:56.790Z,101744.38
2022-10-17T08:10:24.157Z,101741.03
2022-10-17T08:12:51.564Z,101746.97
2022-10-17T08:15:18.029Z,101749.53
2022-10-17T08:17:44.491Z,101750.38
2022-10-17T08:20:11.896Z,101755.97
2022-10-17T08:22:38.353Z,101752.69
2022-10-17T08:25:04.862Z,101747.56
2022-10-17T08:27:31.313Z,101753.50
2022-10-17T08:29:57.755Z,101739.63
2022-10-17T08:32:25.163Z,101746.34
2022-10-17T08:34:52.640Z,101739.97
2022-10-17T08:37:20.057Z,101740.00
2022-10-17T08:39:47.411Z,101738.00
2022-10-17T08:42:14.751Z,101742.75
2022-10-17T08:44:41.209Z,101736.38
2022-10-17T08:47:07.755Z,101727.97
2022-10-17T08:49:35.117Z,101740.47
2022-10-17T08:52:02.512Z,101737.03
2022-10-17T08:54:29.034Z,101738.69
2022-10-17T08:56:55.502Z,101737.53
2022-10-17T08:59:22.082Z,101743.22
2022-10-17T09:01:48.543Z,101736.78
2022-10-17T09:04:14.975Z,101739.22
2022-10-17T09:06:41.429Z,101735.88
2022-10-17T09:09:07.905Z,101731.13
2022-10-17T09:11:34.344Z,101733.19
2022-10-17T09:14:01.726Z,101726.31
2022-10-17T09:16:29.088Z,101724.66
2022-10-17T09:18:56.448Z,101726.91
2022-10-17T09:21:23.828Z,101731.28
2022-10-17T09:23:53.290Z,101721.88
2022-10-17T09:26:27.026Z,101725.81
2022-10-17T09:28:53.642Z,101724.78
2022-10-17T09:31:21.048Z,101724.88
2022-10-17T09:33:55.644Z,101725.16
2022-10-17T09:36:23.059Z,101714.63
2022-10-17T09:38:50.499Z,101718.84
2022-10-17T09:41:42.856Z,101720.41
2022-10-17T09:44:04.308Z,101724.63
2022-10-17T09:46:30.744Z,101722.63
2022-10-17T09:48:58.342Z,101725.63
2022-10-17T09:51:26.382Z,101720.44
2022-10-17T09:53:53.868Z,101713.53
2022-10-17T09:56:20.328Z,101709.16
2022-10-17T09:58:47.717Z,101706.38
2022-10-17T10:01:14.240Z,101706.75
2022-10-17T10:03:40.715Z,101705.22
2022-10-17T10:06:07.181Z,101703.59
2022-10-17T10:08:34.581Z,101705.38
2022-10-17T10:11:01.996Z,101697.41
2022-10-17T10:13:29.383Z,101704.38
2022-10-17T10:15:55.845Z,101701.25
2022-10-17T10:18:23.308Z,101704.22
2022-10-17T10:20:49.839Z,101704.38
2022-10-17T10:23:16.307Z,101694.34
2022-10-17T10:25:43.701Z,101698.28
2022-10-17T10:28:10.187Z,101695.69
2022-10-17T10:30:39.148Z,101687.78
2022-10-17T10:33:07.539Z,101696.53
2022-10-17T10:35:34.938Z,101698.94
2022-10-17T10:38:01.401Z,101700.84
2022-10-17T10:40:27.856Z,101699.38
2022-10-17T10:42:54.390Z,101705.75
2022-10-17T10:45:43.259Z,101692.25
2022-10-17T10:48:08.208Z,101685.59
2022-10-17T10:50:34.653Z,101687.22
2022-10-17T10:53:02.097Z,101687.63
2022-10-17T10:55:28.553Z,101687.66
2022-10-17T10:57:55.010Z,101686.47
2022-10-17T11:00:21.491Z,101686.44
2022-10-17T11:02:47.944Z,101693.22
2022-10-17T11:05:15.333Z,101685.25
2022-10-17T11:07:42.795Z,101689.66
2022-10-17T11:10:10.169Z,101699.59
2022-10-17T11:12:36.641Z,101696.00
2022-10-17T11:15:04.069Z,101686.03
2022-10-17T11:17:30.770Z,101690.81
2022-10-17T11:19:58.521Z,101683.66
2022-10-17T11:22:28.185Z,101678.50
2022-10-17T11:24:55.819Z,101678.09
2022-10-17T11:27:22.260Z,101686.88
2022-10-17T11:29:48.713Z,101680.88
2022-10-17T11:32:15.190Z,101691.66
2022-10-17T11:34:42.578Z,101686.44
2022-10-17T11:37:09.021Z,101686.06
2022-10-17T11:39:36.444Z,101686.53
2022-10-17T11:42:04.324Z,101685.78
2022-10-17T11:44:31.789Z,101683.03
2022-10-17T11:46:58.435Z,101685.19
2022-10-17T11:49:24.974Z,101680.34
2022-10-17T11:52:01.187Z,101685.59
2022-10-17T11:54:28.341Z,101696.75
2022-10-17T11:56:54.926Z,101692.41
2022-10-17T11:59:23.120Z,101690.06
2022-10-17T12:01:50.496Z,101684.88
2022-10-17T12:04:17.940Z,101690.31
2022-10-17T12:06:44.474Z,101688.00
2022-10-17T12:09:11.874Z,101694.75
2022-10-17T12:11:38.356Z,101693.56
2022-10-17T12:14:06.179Z,101694.78
2022-10-17T12:16:34.098Z,101698.38
2022-10-17T12:19:00.621Z,101693.59
2022-10-17T12:21:31.258Z,101688.78
2022-10-17T12:23:59.532Z,101677.97
2022-10-17T12:26:26.916Z,101680.31
2022-10-17T12:28:54.338Z,101677.16
2022-10-17T12:31:21.747Z,101676.38
2022-10-17T12:33:48.215Z,101665.59
2022-10-17T12:36:14.695Z,101671.13
2022-10-17T12:38:42.048Z,101671.97
2022-10-17T12:41:08.541Z,101670.41
2022-10-17T12:43:35.036Z,101666.38
2022-10-17T12:46:01.625Z,101659.59
2022-10-17T12:48:29.008Z,101660.34
2022-10-17T12:50:56.553Z,101652.41
2022-10-17T12:53:28.139Z,101653.13
2022-10-17T12:55:54.606Z,101645.97
2022-10-17T12:58:21.058Z,101643.63
2022-10-17T13:01:05.314Z,101644.41
2022-10-17T13:03:34.886Z,101645.53
2022-10-17T13:06:01.348Z,101649.63
2022-10-17T13:08:28.012Z,101652.31
2022-10-17T13:10:55.377Z,101650.72
2022-10-17T13:13:21.836Z,101651.19
2022-10-17T13:15:48.290Z,101650.31
2022-10-17T13:18:15.653Z,101647.66
2022-10-17T13:20:42.131Z,101649.94
2022-10-17T13:23:08.596Z,101644.34
2022-10-17T13:25:38.809Z,101643.13
2022-10-17T13:28:06.029Z,101645.81
2022-10-17T13:30:33.400Z,101641.34
2022-10-17T13:32:59.872Z,101646.16
2022-10-17T13:35:36.561Z,101649.06
2022-10-17T13:38:13.794Z,101637.38
2022-10-17T13:40:49.469Z,101634.00
2022-10-17T13:43:17.982Z,101630.19
2022-10-17T13:45:44.513Z,101635.00
2022-10-17T13:48:11.898Z,101633.78
2022-10-17T13:50:45.521Z,101628.19
2022-10-17T13:53:12.924Z,101629.34
2022-10-17T13:55:39.418Z,101634.69
2022-10-17T13:58:05.886Z,101630.41
2022-10-17T14:00:32.398Z,101624.81
2022-10-17T14:02:59.860Z,101624.13
2022-10-17T14:05:27.255Z,101623.41
2022-10-17T14:10:40.143Z,101616.41
2022-10-17T14:13:06.607Z,101615.63
2022-10-17T14:15:33.069Z,101623.19
2022-10-17T14:18:00.244Z,101614.41
2022-10-17T14:21:08.229Z,101617.41
2022-10-17T14:23:22.840Z,101616.66
2022-10-17T14:25:49.660Z,101608.50
2022-10-17T14:28:16.118Z,101604.00
2022-10-17T14:30:56.236Z,101608.41
2022-10-17T14:33:23.977Z,101605.13
2022-10-17T14:35:50.435Z,101599.94
2022-10-17T14:38:17.824Z,101604.31
2022-10-17T14:40:44.358Z,101595.22
2022-10-17T14:43:11.737Z,101600.03
2022-10-17T14:45:39.114Z,101593.63
2022-10-17T14:48:05.628Z,101595.56
2022-10-17T14:50:32.146Z,101596.75
2022-10-17T14:52:59.524Z,101591.56
2022-10-17T14:55:25.986Z,101600.72
2022-10-17T14:57:52.445Z,101599.13
2022-10-17T15:00:19.828Z,101605.50
2022-10-17T15:02:46.285Z,101600.75
2022-10-17T15:05:13.562Z,101609.16
2022-10-17T15:07:41.146Z,101599.13
2022-10-17T15:10:07.713Z,101594.28
2022-10-17T15:12:34.169Z,101599.84
2022-10-17T15:15:00.642Z,101594.69
2022-10-17T15:17:28.050Z,101591.81
2022-10-17T15:19:54.513Z,101599.03
2022-10-17T15:22:21.924Z,101603.03
2022-10-17T15:24:49.310Z,101597.50
2022-10-17T15:27:16.747Z,101594.78
2022-10-17T15:29:43.193Z,101598.75
2022-10-17T15:32:09.721Z,101598.75
2022-10-17T15:34:37.402Z,101602.38
2022-10-17T15:37:04.817Z,101593.22
2022-10-17T15:39:32.189Z,101595.59
2022-10-17T15:41:58.642Z,101588.00
2022-10-17T15:44:26.040Z,101600.25
2022-10-17T15:46:52.496Z,101599.47
2022-10-17T15:49:19.949Z,101602.25
2022-10-17T15:51:47.747Z,101599.47
2022-10-17T15:54:15.825Z,101597.88
2022-10-17T15:56:43.253Z,101597.88
2022-10-17T15:59:09.690Z,101597.88
2022-10-17T16:01:36.160Z,101589.84
2022-10-17T16:04:02.615Z,101590.25
2022-10-17T16:06:29.186Z,101587.06
2022-10-17T16:08:55.677Z,101593.06
2022-10-17T16:11:22.151Z,101596.66
2022-10-17T16:13:49.554Z,101595.44
2022-10-17T16:16:16.087Z,101598.63
2022-10-17T16:18:42.534Z,101585.06
2022-10-17T16:21:08.996Z,101592.13
2022-10-17T16:23:35.481Z,101589.75
2022-10-17T16:26:02.005Z,101577.84
2022-10-17T16:28:28.504Z,101572.25
2022-10-17T16:30:54.996Z,101570.25
2022-10-17T16:33:21.468Z,101573.84
2022-10-17T16:35:47.921Z,101574.28
2022-10-17T16:38:14.403Z,101571.09
2022-10-17T16:40:40.874Z,101574.28
2022-10-17T16:43:08.286Z,101572.28
2022-10-17T16:45:34.737Z,101569.06
2022-10-17T16:48:01.216Z,101573.03
2022-10-17T16:50:27.691Z,101570.69
2022-10-17T16:52:54.219Z,101576.63
2022-10-17T16:55:21.628Z,101578.63
2022-10-17T16:57:48.092Z,101580.28
2022-10-17T17:00:15.492Z,101579.88
2022-10-17T17:02:41.940Z,101572.69
2022-10-17T17:05:08.480Z,101564.34
2022-10-17T17:07:35.871Z,101575.09
2022-10-17T17:10:02.319Z,101573.91
2022-10-17T17:12:28.798Z,101567.97
2022-10-17T17:14:56.173Z,101566.72
2022-10-17T17:17:36.901Z,101576.69
2022-10-17T17:20:10.009Z,101578.28
2022-10-17T17:22:36.499Z,101578.28
2022-10-17T17:25:02.985Z,101575.06
2022-10-17T17:27:29.751Z,101574.59
2022-10-17T17:29:57.555Z,101569.44
2022-10-17T17:32:24.988Z,101571.06
2022-10-17T17:34:51.488Z,101564.25
2022-10-17T17:37:18.944Z,101569.44
2022-10-17T17:39:45.407Z,101569.44
2022-10-17T17:42:12.784Z,101568.28
2022-10-17T17:44:40.178Z,101567.81
2022-10-17T17:47:07.639Z,101566.63
2022-10-17T17:49:34.107Z,101558.28
2022-10-17T17:54:28.814Z,101571.75
2022-10-17T17:56:55.332Z,101555.47
2022-10-17T17:59:21.822Z,101565.38
2022-10-17T18:01:48.341Z,101561.00
2022-10-17T18:04:14.854Z,101567.72
2022-10-17T18:06:41.352Z,101573.00
2022-10-17T18:09:07.883Z,101573.78
2022-10-17T18:11:34.364Z,101570.53
2022-10-17T18:14:00.890Z,101571.19
2022-10-17T18:16:27.356Z,101565.22
2022-10-17T18:18:53.846Z,101566.00
2022-10-17T18:21:20.302Z,101562.06
2022-10-17T18:23:46.755Z,101565.19
2022-10-17T18:26:14.149Z,101562.84
2022-10-17T18:31:08.119Z,101566.56
2022-10-17T18:33:35.511Z,101566.84
2022-10-17T18:36:06.078Z,101566.81
2022-10-17T18:38:34.452Z,101562.69
2022-10-17T18:41:01.831Z,101556.41
2022-10-17T18:43:28.295Z,101556.78
2022-10-17T18:45:54.774Z,101550.34
2022-10-17T18:48:22.208Z,101552.66
2022-10-17T18:50:49.668Z,101555.38
2022-10-17T18:55:42.597Z,101555.75
2022-10-17T18:58:09.100Z,101555.03
2022-10-17T19:00:35.553Z,101559.44
2022-10-17T19:03:02.035Z,101555.47
2022-10-17T19:05:29.439Z,101554.59
2022-10-17T19:07:55.940Z,101551.31
2022-10-17T19:10:23.338Z,101544.84
2022-10-17T19:12:50.741Z,101531.84
2022-10-17T19:15:19.454Z,101549.34
2022-10-17T19:17:47.688Z,101541.81
2022-10-17T19:20:15.061Z,101548.28
2022-10-17T19:22:42.533Z,101545.41
2022-10-17T19:25:09.051Z,101531.47
2022-10-17T19:27:36.495Z,101542.75
2022-10-17T19:30:02.990Z,101537.69
2022-10-17T19:32:29.677Z,101526.88
2022-10-17T19:34:56.509Z,101529.78
2022-10-17T19:37:22.954Z,101526.63
2022-10-17T19:39:50.332Z,101526.56
2022-10-17T19:42:17.699Z,101530.84
2022-10-17T19:44:45.105Z,101526.88
2022-10-17T19:47:11.602Z,101525.22
2022-10-17T19:49:38.976Z,101531.56
2022-10-17T19:52:06.537Z,101533.28
2022-10-17T19:54:33.943Z,101528.81
2022-10-17T19:57:00.402Z,101532.94
2022-10-17T19:59:26.890Z,101530.81
2022-10-17T20:01:53.506Z,101528.44
2022-10-17T20:04:20.975Z,101523.31
2022-10-17T20:06:47.431Z,101522.53
2022-10-17T20:09:17.050Z,101523.28
2022-10-17T20:11:44.028Z,101525.19
2022-10-17T20:14:10.564Z,101522.41
2022-10-17T20:16:37.036Z,101527.63
2022-10-17T20:19:03.494Z,101517.84
2022-10-17T20:21:29.952Z,101515.56
2022-10-17T20:23:56.410Z,101511.31
2022-10-17T20:26:37.658Z,101509.66
2022-10-17T20:29:05.023Z,101505.69
2022-10-17T20:31:32.449Z,101498.59
2022-10-17T20:33:58.950Z,101501.66
2022-10-17T20:36:25.422Z,101505.47
2022-10-17T20:38:51.875Z,101506.34
2022-10-17T20:41:19.290Z,101503.03
2022-10-17T20:43:45.745Z,101493.44
2022-10-17T20:46:29.371Z,101487.94
2022-10-17T20:48:59.586Z,101493.94
2022-10-17T20:51:26.026Z,101489.88
2022-10-17T20:53:52.520Z,101490.16
2022-10-17T20:56:19.966Z,101482.56
2022-10-17T20:58:46.430Z,101479.53
2022-10-17T21:01:13.845Z,101482.19
2022-10-17T21:03:44.050Z,101476.66
2022-10-17T21:06:12.982Z,101476.09
2022-10-17T21:08:39.451Z,101479.44
2022-10-17T21:11:05.903Z,101474.16
2022-10-17T21:13:32.392Z,101482.50
2022-10-17T21:15:58.849Z,101480.38
2022-10-17T21:18:26.236Z,101478.88
2022-10-17T21:20:53.696Z,101469.97
2022-10-17T21:23:21.150Z,101472.00
2022-10-17T21:25:47.620Z,101472.88
2022-10-17T21:28:14.975Z,101475.22
2022-10-17T21:30:41.428Z,101468.47
2022-10-17T21:33:08.075Z,101462.09
2022-10-17T21:35:34.595Z,101462.44
2022-10-17T21:38:01.059Z,101463.72
2022-10-17T21:40:27.520Z,101463.59
2022-10-17T21:42:53.975Z,101450.91
2022-10-17T21:45:25.862Z,101459.31
2022-10-17T21:48:11.851Z,101459.56
2022-10-17T21:50:39.065Z,101456.88
2022-10-17T21:53:05.522Z,101446.41
2022-10-17T21:55:31.968Z,101453.22
2022-10-17T21:57:58.496Z,101449.13
2022-10-17T22:00:24.934Z,101448.72
2022-10-17T22:02:51.387Z,101448.06
2022-10-17T22:05:17.849Z,101447.59
2022-10-17T22:07:45.237Z,101454.78
2022-10-17T22:10:12.598Z,101449.72
2022-10-17T22:12:39.998Z,101441.66
2022-10-17T22:15:06.477Z,101450.03
2022-10-17T22:17:33.160Z,101448.78
2022-10-17T22:19:59.853Z,101456.78
2022-10-17T22:22:26.314Z,101450.06
2022-10-17T22:24:52.792Z,101453.03
2022-10-17T22:27:20.239Z,101449.97
2022-10-17T22:29:46.689Z,101450.19
2022-10-17T22:32:17.510Z,101448.59
2022-10-17T22:34:48.333Z,101449.00
2022-10-17T22:37:15.831Z,101441.88
2022-10-17T22:39:42.301Z,101446.25
2022-10-17T22:42:08.873Z,101435.06
2022-10-17T22:44:35.376Z,101444.13
2022-10-17T22:47:01.849Z,101446.13
2022-10-17T22:49:29.232Z,101441.41
2022-10-17T22:51:55.688Z,101438.97
2022-10-17T22:54:22.215Z,101444.22
2022-10-17T22:56:48.680Z,101448.56
2022-10-17T22:59:16.062Z,101448.59
2022-10-17T23:01:43.468Z,101443.03
2022-10-17T23:04:10.908Z,101433.53
2022-10-17T23:06:38.278Z,101442.63
2022-10-17T23:09:05.691Z,101439.84
2022-10-17T23:11:32.189Z,101445.06
2022-10-17T23:13:58.625Z,101448.69
2022-10-17T23:16:25.074Z,101435.94
2022-10-17T23:18:51.531Z,101437.91
2022-10-17T23:21:18.921Z,101433.94
2022-10-17T23:23:46.331Z,101444.28
2022-10-17T23:26:12.773Z,101442.28
2022-10-17T23:28:39.284Z,101438.31
2022-10-17T23:31:05.798Z,101443.84
2022-10-17T23:33:32.260Z,101441.47
2022-10-17T23:35:58.704Z,101444.66
2022-10-17T23:38:25.161Z,101445.03
2022-10-17T23:40:51.595Z,101440.31
2022-10-17T23:43:18.992Z,101437.44
2022-10-17T23:45:45.496Z,101433.56
2022-10-17T23:48:12.859Z,101438.28
2022-10-17T23:50:39.315Z,101441.09
2022-10-17T23:53:05.766Z,101437.50
2022-10-17T23:55:32.215Z,101437.50
2022-10-17T23:57:58.666Z,101434.28
